sensor_id;sensor_type;location;lat;lon;timestamp;P1;durP1;ratioP1;P2;durP2;ratioP2
1887;SDS011;944;51.574;6.980;2022-10-04T00:06:01;16.90;;;9.73;;
1887;SDS011;944;51.574;6.980;2022-10-04T02:02:35;15.90;;;8.40;;
1887;SDS011;944;51.574;6.980;2022-10-04T02:10:03;19.87;;;9.50;;
1887;SDS011;944;51.574;6.980;2022-10-04T02:17:02;20.57;;;9.60;;
1887;SDS011;944;51.574;6.980;2022-10-04T02:39:47;19.63;;;9.10;;
1887;SDS011;944;51.574;6.980;2022-10-04T02:50:56;18.97;;;8.43;;
1887;SDS011;944;51.574;6.980;2022-10-04T03:34:59;15.50;;;9.27;;
1887;SDS011;944;51.574;6.980;2022-10-04T03:42:44;17.17;;;9.97;;
1887;SDS011;944;51.574;6.980;2022-10-04T05:33:03;25.87;;;12.63;;
1887;SDS011;944;51.574;6.980;2022-10-04T05:39:37;20.30;;;10.20;;
1887;SDS011;944;51.574;6.980;2022-10-04T05:42:19;21.17;;;10.90;;
1887;SDS011;944;51.574;6.980;2022-10-04T05:45:10;19.43;;;10.77;;
1887;SDS011;944;51.574;6.980;2022-10-04T05:48:02;29.50;;;12.20;;
1887;SDS011;944;51.574;6.980;2022-10-04T05:50:58;26.37;;;10.97;;
1887;SDS011;944;51.574;6.980;2022-10-04T05:59:03;20.63;;;10.97;;
1887;SDS011;944;51.574;6.980;2022-10-04T06:08:37;27.30;;;11.03;;
1887;SDS011;944;51.574;6.980;2022-10-04T06:52:51;26.50;;;11.93;;
1887;SDS011;944;51.574;6.980;2022-10-04T07:03:10;21.90;;;11.60;;
1887;SDS011;944;51.574;6.980;2022-10-04T07:05:43;28.43;;;11.90;;
1887;SDS011;944;51.574;6.980;2022-10-04T07:08:18;23.87;;;11.30;;
1887;SDS011;944;51.574;6.980;2022-10-04T07:10:58;19.80;;;11.50;;
1887;SDS011;944;51.574;6.980;2022-10-04T07:13:32;16.30;;;9.83;;
1887;SDS011;944;51.574;6.980;2022-10-04T07:16:08;19.47;;;10.33;;
1887;SDS011;944;51.574;6.980;2022-10-04T07:18:56;15.07;;;9.87;;
1887;SDS011;944;51.574;6.980;2022-10-04T07:21:35;19.57;;;8.67;;
1887;SDS011;944;51.574;6.980;2022-10-04T07:24:11;17.60;;;9.00;;
1887;SDS011;944;51.574;6.980;2022-10-04T07:26:51;15.50;;;8.30;;
1887;SDS011;944;51.574;6.980;2022-10-04T07:29:21;12.50;;;7.77;;
1887;SDS011;944;51.574;6.980;2022-10-04T07:31:52;20.47;;;8.20;;
1887;SDS011;944;51.574;6.980;2022-10-04T07:37:20;20.33;;;9.27;;
1887;SDS011;944;51.574;6.980;2022-10-04T07:39:53;14.60;;;7.40;;
1887;SDS011;944;51.574;6.980;2022-10-04T07:42:26;18.80;;;7.37;;
1887;SDS011;944;51.574;6.980;2022-10-04T07:45:07;14.10;;;7.10;;
1887;SDS011;944;51.574;6.980;2022-10-04T07:47:39;12.07;;;7.00;;
1887;SDS011;944;51.574;6.980;2022-10-04T07:53:00;15.43;;;8.20;;
1887;SDS011;944;51.574;6.980;2022-10-04T08:03:33;19.97;;;6.90;;
1887;SDS011;944;51.574;6.980;2022-10-04T08:06:30;14.00;;;7.00;;
1887;SDS011;944;51.574;6.980;2022-10-04T08:12:06;11.90;;;6.00;;
1887;SDS011;944;51.574;6.980;2022-10-04T08:14:46;23.80;;;8.63;;
1887;SDS011;944;51.574;6.980;2022-10-04T08:21:27;17.00;;;7.43;;
1887;SDS011;944;51.574;6.980;2022-10-04T09:27:46;13.80;;;5.00;;
1887;SDS011;944;51.574;6.980;2022-10-04T09:41:58;11.10;;;4.40;;
1887;SDS011;944;51.574;6.980;2022-10-04T09:47:57;7.60;;;4.37;;
1887;SDS011;944;51.574;6.980;2022-10-04T09:51:35;7.13;;;4.00;;
1887;SDS011;944;51.574;6.980;2022-10-04T10:01:28;12.67;;;4.33;;
1887;SDS011;944;51.574;6.980;2022-10-04T10:12:12;6.63;;;3.63;;
1887;SDS011;944;51.574;6.980;2022-10-04T10:15:31;8.13;;;3.63;;
1887;SDS011;944;51.574;6.980;2022-10-04T10:18:29;8.77;;;4.30;;
1887;SDS011;944;51.574;6.980;2022-10-04T10:25:37;8.67;;;3.73;;
1887;SDS011;944;51.574;6.980;2022-10-04T10:31:30;8.63;;;4.07;;
1887;SDS011;944;51.574;6.980;2022-10-04T10:46:01;9.37;;;3.53;;
1887;SDS011;944;51.574;6.980;2022-10-04T11:42:17;11.03;;;3.37;;
1887;SDS011;944;51.574;6.980;2022-10-04T11:45:04;6.77;;;3.80;;
1887;SDS011;944;51.574;6.980;2022-10-04T11:48:00;13.30;;;4.20;;
1887;SDS011;944;51.574;6.980;2022-10-04T11:50:53;6.37;;;3.77;;
1887;SDS011;944;51.574;6.980;2022-10-04T11:53:46;6.13;;;3.00;;
1887;SDS011;944;51.574;6.980;2022-10-04T11:59:53;5.87;;;3.00;;
1887;SDS011;944;51.574;6.980;2022-10-04T12:08:55;6.60;;;2.90;;
1887;SDS011;944;51.574;6.980;2022-10-04T12:18:36;9.20;;;3.43;;
1887;SDS011;944;51.574;6.980;2022-10-04T12:21:47;8.00;;;3.03;;
1887;SDS011;944;51.574;6.980;2022-10-04T12:24:33;7.63;;;4.07;;
1887;SDS011;944;51.574;6.980;2022-10-04T12:27:59;4.70;;;3.07;;
1887;SDS011;944;51.574;6.980;2022-10-04T12:31:05;6.33;;;3.17;;
1887;SDS011;944;51.574;6.980;2022-10-04T12:33:54;6.90;;;3.17;;
1887;SDS011;944;51.574;6.980;2022-10-04T12:40:02;7.67;;;3.50;;
1887;SDS011;944;51.574;6.980;2022-10-04T12:46:46;8.33;;;3.60;;
1887;SDS011;944;51.574;6.980;2022-10-04T12:55:41;7.23;;;3.63;;
1887;SDS011;944;51.574;6.980;2022-10-04T12:58:30;9.80;;;3.50;;
1887;SDS011;944;51.574;6.980;2022-10-04T13:01:25;6.70;;;2.87;;
1887;SDS011;944;51.574;6.980;2022-10-04T13:04:10;6.40;;;3.43;;
1887;SDS011;944;51.574;6.980;2022-10-04T13:06:58;10.07;;;3.70;;
1887;SDS011;944;51.574;6.980;2022-10-04T13:09:49;10.13;;;3.47;;
1887;SDS011;944;51.574;6.980;2022-10-04T13:15:06;2.93;;;2.53;;
1887;SDS011;944;51.574;6.980;2022-10-04T13:17:51;9.57;;;2.93;;
1887;SDS011;944;51.574;6.980;2022-10-04T13:20:36;11.90;;;3.43;;
1887;SDS011;944;51.574;6.980;2022-10-04T13:23:16;6.27;;;3.40;;
1887;SDS011;944;51.574;6.980;2022-10-04T13:26:45;10.73;;;3.40;;
1887;SDS011;944;51.574;6.980;2022-10-04T13:29:44;5.73;;;3.50;;
1887;SDS011;944;51.574;6.980;2022-10-04T13:36:30;12.43;;;3.57;;
1887;SDS011;944;51.574;6.980;2022-10-04T13:42:13;6.07;;;3.40;;
1887;SDS011;944;51.574;6.980;2022-10-04T13:44:58;9.30;;;3.37;;
1887;SDS011;944;51.574;6.980;2022-10-04T13:51:37;4.23;;;2.83;;
1887;SDS011;944;51.574;6.980;2022-10-04T13:55:05;14.00;;;3.90;;
1887;SDS011;944;51.574;6.980;2022-10-04T13:58:08;10.00;;;4.30;;
1887;SDS011;944;51.574;6.980;2022-10-04T14:00:58;16.33;;;3.30;;
1887;SDS011;944;51.574;6.980;2022-10-04T14:04:29;9.50;;;3.60;;
1887;SDS011;944;51.574;6.980;2022-10-04T14:07:28;5.00;;;3.43;;
1887;SDS011;944;51.574;6.980;2022-10-04T14:10:30;4.57;;;3.10;;
1887;SDS011;944;51.574;6.980;2022-10-04T14:20:02;7.10;;;4.70;;
1887;SDS011;944;51.574;6.980;2022-10-04T16:05:57;13.73;;;4.30;;
1887;SDS011;944;51.574;6.980;2022-10-04T16:08:42;6.00;;;3.13;;
1887;SDS011;944;51.574;6.980;2022-10-04T16:13:42;14.70;;;4.07;;
1887;SDS011;944;51.574;6.980;2022-10-04T16:15:14;10.00;;;4.07;;
1887;SDS011;944;51.574;6.980;2022-10-04T16:21:29;6.77;;;4.33;;
1887;SDS011;944;51.574;6.980;2022-10-04T16:30:26;8.87;;;4.20;;
1887;SDS011;944;51.574;6.980;2022-10-04T16:33:04;7.50;;;4.93;;
1887;SDS011;944;51.574;6.980;2022-10-04T16:36:03;8.40;;;3.90;;
1887;SDS011;944;51.574;6.980;2022-10-04T16:38:47;8.10;;;3.87;;
1887;SDS011;944;51.574;6.980;2022-10-04T16:41:37;5.03;;;3.60;;
1887;SDS011;944;51.574;6.980;2022-10-04T16:44:20;8.67;;;3.23;;
1887;SDS011;944;51.574;6.980;2022-10-04T16:46:57;8.70;;;3.87;;
1887;SDS011;944;51.574;6.980;2022-10-04T16:49:30;9.77;;;4.10;;
1887;SDS011;944;51.574;6.980;2022-10-04T16:55:44;9.03;;;4.30;;
1887;SDS011;944;51.574;6.980;2022-10-04T17:14:05;7.33;;;4.83;;
1887;SDS011;944;51.574;6.980;2022-10-04T17:17:29;7.87;;;4.53;;
1887;SDS011;944;51.574;6.980;2022-10-04T17:20:11;7.03;;;4.27;;
1887;SDS011;944;51.574;6.980;2022-10-04T17:22:57;6.57;;;4.20;;
1887;SDS011;944;51.574;6.980;2022-10-04T17:25:43;7.73;;;4.40;;
1887;SDS011;944;51.574;6.980;2022-10-04T17:28:27;7.63;;;4.97;;
1887;SDS011;944;51.574;6.980;2022-10-04T17:31:01;8.63;;;4.77;;
1887;SDS011;944;51.574;6.980;2022-10-04T17:33:46;9.50;;;6.17;;
1887;SDS011;944;51.574;6.980;2022-10-04T17:36:24;12.30;;;7.43;;
1887;SDS011;944;51.574;6.980;2022-10-04T17:39:13;20.20;;;8.33;;
1887;SDS011;944;51.574;6.980;2022-10-04T17:42:04;15.93;;;9.37;;
1887;SDS011;944;51.574;6.980;2022-10-04T17:45:15;12.43;;;8.30;;
1887;SDS011;944;51.574;6.980;2022-10-04T17:48:12;15.17;;;8.67;;
1887;SDS011;944;51.574;6.980;2022-10-04T17:51:04;17.73;;;7.80;;
1887;SDS011;944;51.574;6.980;2022-10-04T17:54:10;10.17;;;6.90;;
1887;SDS011;944;51.574;6.980;2022-10-04T17:57:36;10.10;;;6.40;;
1887;SDS011;944;51.574;6.980;2022-10-04T18:00:20;11.73;;;6.50;;
1887;SDS011;944;51.574;6.980;2022-10-04T18:03:00;9.20;;;5.93;;
1887;SDS011;944;51.574;6.980;2022-10-04T18:05:41;17.63;;;7.57;;
1887;SDS011;944;51.574;6.980;2022-10-04T18:08:16;17.27;;;8.17;;
1887;SDS011;944;51.574;6.980;2022-10-04T18:10:54;12.67;;;8.10;;
1887;SDS011;944;51.574;6.980;2022-10-04T18:13:27;15.57;;;8.97;;
1887;SDS011;944;51.574;6.980;2022-10-04T18:16:03;23.83;;;7.60;;
1887;SDS011;944;51.574;6.980;2022-10-04T18:18:48;13.63;;;8.23;;
1887;SDS011;944;51.574;6.980;2022-10-04T18:21:18;13.17;;;8.00;;
1887;SDS011;944;51.574;6.980;2022-10-04T18:23:52;18.93;;;8.30;;
1887;SDS011;944;51.574;6.980;2022-10-04T18:26:22;16.10;;;9.90;;
1887;SDS011;944;51.574;6.980;2022-10-04T18:28:52;17.07;;;8.60;;
1887;SDS011;944;51.574;6.980;2022-10-04T18:31:46;17.50;;;8.83;;
1887;SDS011;944;51.574;6.980;2022-10-04T18:34:15;16.37;;;9.60;;
1887;SDS011;944;51.574;6.980;2022-10-04T18:36:52;20.07;;;9.97;;
1887;SDS011;944;51.574;6.980;2022-10-04T18:39:45;19.77;;;9.13;;
1887;SDS011;944;51.574;6.980;2022-10-04T18:42:17;22.03;;;15.20;;
1887;SDS011;944;51.574;6.980;2022-10-04T18:44:54;23.07;;;11.70;;
1887;SDS011;944;51.574;6.980;2022-10-04T18:47:28;19.80;;;9.73;;
1887;SDS011;944;51.574;6.980;2022-10-04T18:50:04;19.60;;;9.93;;
1887;SDS011;944;51.574;6.980;2022-10-04T18:52:44;14.40;;;9.10;;
1887;SDS011;944;51.574;6.980;2022-10-04T18:55:38;18.30;;;8.87;;
1887;SDS011;944;51.574;6.980;2022-10-04T18:58:17;17.00;;;10.03;;
1887;SDS011;944;51.574;6.980;2022-10-04T19:01:26;22.07;;;9.47;;
1887;SDS011;944;51.574;6.980;2022-10-04T19:04:44;14.93;;;9.23;;
1887;SDS011;944;51.574;6.980;2022-10-04T19:07:17;15.33;;;8.80;;
1887;SDS011;944;51.574;6.980;2022-10-04T19:10:06;15.30;;;9.47;;
1887;SDS011;944;51.574;6.980;2022-10-04T19:22:31;20.77;;;10.33;;
1887;SDS011;944;51.574;6.980;2022-10-04T19:25:24;19.53;;;9.77;;
1887;SDS011;944;51.574;6.980;2022-10-04T19:28:19;20.33;;;10.87;;
1887;SDS011;944;51.574;6.980;2022-10-04T19:31:03;25.27;;;11.00;;
1887;SDS011;944;51.574;6.980;2022-10-04T19:33:41;21.20;;;11.20;;
1887;SDS011;944;51.574;6.980;2022-10-04T19:39:33;23.70;;;10.00;;
1887;SDS011;944;51.574;6.980;2022-10-04T19:42:30;18.87;;;10.43;;
1887;SDS011;944;51.574;6.980;2022-10-04T19:45:13;16.03;;;9.57;;
1887;SDS011;944;51.574;6.980;2022-10-04T19:47:55;22.00;;;9.87;;
1887;SDS011;944;51.574;6.980;2022-10-04T19:50:25;14.17;;;9.50;;
1887;SDS011;944;51.574;6.980;2022-10-04T19:52:58;14.80;;;9.37;;
1887;SDS011;944;51.574;6.980;2022-10-04T20:02:48;16.40;;;9.73;;
1887;SDS011;944;51.574;6.980;2022-10-04T20:05:18;26.33;;;10.90;;
1887;SDS011;944;51.574;6.980;2022-10-04T20:11:44;18.60;;;10.40;;
1887;SDS011;944;51.574;6.980;2022-10-04T20:17:31;18.00;;;9.00;;
1887;SDS011;944;51.574;6.980;2022-10-04T20:21:01;17.10;;;9.90;;
1887;SDS011;944;51.574;6.980;2022-10-04T20:23:47;19.97;;;11.23;;
1887;SDS011;944;51.574;6.980;2022-10-04T20:26:47;17.70;;;10.90;;
1887;SDS011;944;51.574;6.980;2022-10-04T20:32:56;18.97;;;10.30;;
1887;SDS011;944;51.574;6.980;2022-10-04T20:38:42;19.10;;;10.50;;
1887;SDS011;944;51.574;6.980;2022-10-04T20:45:20;17.90;;;9.10;;
1887;SDS011;944;51.574;6.980;2022-10-04T20:47:57;15.73;;;8.60;;
1887;SDS011;944;51.574;6.980;2022-10-04T20:53:24;11.60;;;7.53;;
1887;SDS011;944;51.574;6.980;2022-10-04T20:56:07;13.27;;;8.40;;
1887;SDS011;944;51.574;6.980;2022-10-04T21:02:30;12.63;;;7.80;;
1887;SDS011;944;51.574;6.980;2022-10-04T21:06:11;17.97;;;8.20;;
1887;SDS011;944;51.574;6.980;2022-10-04T21:11:43;11.40;;;7.63;;
1887;SDS011;944;51.574;6.980;2022-10-04T21:14:25;10.63;;;7.73;;
1887;SDS011;944;51.574;6.980;2022-10-04T21:16:57;10.80;;;6.90;;
1887;SDS011;944;51.574;6.980;2022-10-04T21:19:45;13.33;;;7.90;;
1887;SDS011;944;51.574;6.980;2022-10-04T21:25:38;11.47;;;7.03;;
1887;SDS011;944;51.574;6.980;2022-10-04T21:31:12;11.00;;;7.47;;
1887;SDS011;944;51.574;6.980;2022-10-04T21:33:45;18.83;;;9.30;;
1887;SDS011;944;51.574;6.980;2022-10-04T21:36:14;22.70;;;9.07;;
1887;SDS011;944;51.574;6.980;2022-10-04T21:38:42;17.67;;;9.50;;
1887;SDS011;944;51.574;6.980;2022-10-04T21:41:11;19.50;;;10.00;;
1887;SDS011;944;51.574;6.980;2022-10-04T21:43:39;16.90;;;10.10;;
1887;SDS011;944;51.574;6.980;2022-10-04T21:46:06;20.40;;;10.70;;
1887;SDS011;944;51.574;6.980;2022-10-04T21:48:33;19.07;;;9.40;;
1887;SDS011;944;51.574;6.980;2022-10-04T21:51:05;15.43;;;9.30;;
1887;SDS011;944;51.574;6.980;2022-10-04T21:53:34;13.30;;;9.23;;
1887;SDS011;944;51.574;6.980;2022-10-04T21:56:01;18.07;;;8.90;;
1887;SDS011;944;51.574;6.980;2022-10-04T21:58:30;16.90;;;8.53;;
1887;SDS011;944;51.574;6.980;2022-10-04T22:00:57;21.37;;;9.40;;
1887;SDS011;944;51.574;6.980;2022-10-04T22:03:25;21.63;;;9.17;;
1887;SDS011;944;51.574;6.980;2022-10-04T22:05:55;18.63;;;8.77;;
1887;SDS011;944;51.574;6.980;2022-10-04T22:08:40;17.93;;;8.70;;
1887;SDS011;944;51.574;6.980;2022-10-04T22:11:14;14.90;;;8.00;;
1887;SDS011;944;51.574;6.980;2022-10-04T22:13:46;17.93;;;8.70;;
1887;SDS011;944;51.574;6.980;2022-10-04T22:16:15;28.57;;;8.50;;
1887;SDS011;944;51.574;6.980;2022-10-04T22:18:47;14.80;;;8.47;;
1887;SDS011;944;51.574;6.980;2022-10-04T22:21:21;13.27;;;8.40;;
1887;SDS011;944;51.574;6.980;2022-10-04T22:23:50;15.83;;;7.60;;
1887;SDS011;944;51.574;6.980;2022-10-04T22:26:18;14.13;;;7.43;;
1887;SDS011;944;51.574;6.980;2022-10-04T22:28:49;25.83;;;8.70;;
1887;SDS011;944;51.574;6.980;2022-10-04T22:31:18;13.47;;;8.20;;
1887;SDS011;944;51.574;6.980;2022-10-04T22:33:50;20.13;;;8.20;;
1887;SDS011;944;51.574;6.980;2022-10-04T22:36:25;13.67;;;7.90;;
1887;SDS011;944;51.574;6.980;2022-10-04T22:39:09;12.80;;;7.87;;
1887;SDS011;944;51.574;6.980;2022-10-04T22:41:43;15.13;;;7.90;;
1887;SDS011;944;51.574;6.980;2022-10-04T22:44:16;21.27;;;9.77;;
1887;SDS011;944;51.574;6.980;2022-10-04T22:46:50;19.90;;;9.40;;
1887;SDS011;944;51.574;6.980;2022-10-04T22:49:23;23.50;;;9.97;;
1887;SDS011;944;51.574;6.980;2022-10-04T22:51:58;16.30;;;9.00;;
1887;SDS011;944;51.574;6.980;2022-10-04T22:54:39;14.37;;;8.13;;
1887;SDS011;944;51.574;6.980;2022-10-04T22:57:12;16.13;;;8.77;;
1887;SDS011;944;51.574;6.980;2022-10-04T22:59:47;15.93;;;9.00;;
1887;SDS011;944;51.574;6.980;2022-10-04T23:02:18;19.33;;;9.50;;
1887;SDS011;944;51.574;6.980;2022-10-04T23:04:54;18.83;;;9.50;;
1887;SDS011;944;51.574;6.980;2022-10-04T23:07:29;15.47;;;9.20;;
1887;SDS011;944;51.574;6.980;2022-10-04T23:09:57;18.37;;;8.87;;
1887;SDS011;944;51.574;6.980;2022-10-04T23:12:24;14.87;;;10.03;;
1887;SDS011;944;51.574;6.980;2022-10-04T23:14:51;17.70;;;8.43;;
1887;SDS011;944;51.574;6.980;2022-10-04T23:17:22;18.77;;;9.87;;
1887;SDS011;944;51.574;6.980;2022-10-04T23:19:56;13.40;;;8.87;;
1887;SDS011;944;51.574;6.980;2022-10-04T23:22:32;18.60;;;9.27;;
1887;SDS011;944;51.574;6.980;2022-10-04T23:25:08;15.80;;;9.20;;
1887;SDS011;944;51.574;6.980;2022-10-04T23:27:44;14.90;;;9.13;;
1887;SDS011;944;51.574;6.980;2022-10-04T23:30:13;24.17;;;9.90;;
1887;SDS011;944;51.574;6.980;2022-10-04T23:32:43;13.97;;;9.00;;
1887;SDS011;944;51.574;6.980;2022-10-04T23:35:24;14.77;;;9.00;;
1887;SDS011;944;51.574;6.980;2022-10-04T23:37:57;24.70;;;9.60;;
1887;SDS011;944;51.574;6.980;2022-10-04T23:40:37;16.43;;;9.37;;
1887;SDS011;944;51.574;6.980;2022-10-04T23:43:12;19.20;;;9.13;;
1887;SDS011;944;51.574;6.980;2022-10-04T23:45:43;17.17;;;9.00;;
1887;SDS011;944;51.574;6.980;2022-10-04T23:48:20;17.53;;;8.13;;
1887;SDS011;944;51.574;6.980;2022-10-04T23:50:51;13.00;;;7.50;;
1887;SDS011;944;51.574;6.980;2022-10-04T23:53:21;11.10;;;8.03;;
1887;SDS011;944;51.574;6.980;2022-10-04T23:55:55;16.73;;;9.30;;
1887;SDS011;944;51.574;6.980;2022-10-04T23:58:33;13.63;;;8.17;;
